createdAt,value
2019-02-16T00:00:05.121Z,25.30
2019-02-16T00:01:05.138Z,19.00
2019-02-16T00:02:05.156Z,11.00
2019-02-16T00:03:05.173Z,7.20
2019-02-16T00:04:05.185Z,13.10
2019-02-16T00:05:05.208Z,28.70
2019-02-16T00:06:05.218Z,8.80
2019-02-16T00:07:05.235Z,9.40
2019-02-16T00:08:05.256Z,7.40
2019-02-16T00:09:05.273Z,21.50
2019-02-16T00:10:05.284Z,10.40
2019-02-16T00:11:05.298Z,12.00
2019-02-16T00:12:05.316Z,9.00
2019-02-16T00:13:05.330Z,7.40
2019-02-16T00:14:05.355Z,8.20
2019-02-16T00:15:05.361Z,6.80
2019-02-16T00:16:05.386Z,7.20
2019-02-16T00:17:05.394Z,6.60
2019-02-16T00:18:05.416Z,10.00
2019-02-16T00:19:05.436Z,6.20
2019-02-16T00:20:05.443Z,6.30
2019-02-16T00:21:05.465Z,6.20
2019-02-16T00:22:05.481Z,6.10
2019-02-16T00:23:05.748Z,6.40
2019-02-16T00:24:05.507Z,6.00
2019-02-16T00:25:05.528Z,6.40
2019-02-16T00:26:05.544Z,6.10
2019-02-16T00:27:05.560Z,6.50
2019-02-16T00:28:05.572Z,5.30
2019-02-16T00:29:05.587Z,5.80
2019-02-16T00:30:05.602Z,5.70
2019-02-16T00:31:05.620Z,5.50
2019-02-16T00:32:05.634Z,6.50
2019-02-16T00:33:05.652Z,6.20
2019-02-16T00:34:05.667Z,6.20
2019-02-16T00:35:05.688Z,5.40
2019-02-16T00:36:05.697Z,6.00
2019-02-16T00:37:05.710Z,5.20
2019-02-16T00:38:05.728Z,6.60
2019-02-16T00:39:05.743Z,5.80
2019-02-16T00:40:05.758Z,6.00
2019-02-16T00:41:05.778Z,5.50
2019-02-16T00:42:05.792Z,6.10
2019-02-16T00:43:05.808Z,6.10
2019-02-16T00:44:05.823Z,6.30
2019-02-16T00:45:05.839Z,6.10
2019-02-16T00:46:05.854Z,6.20
2019-02-16T00:47:05.876Z,6.10
2019-02-16T00:48:05.887Z,6.40
2019-02-16T00:49:05.900Z,6.30
2019-02-16T00:50:05.916Z,6.40
2019-02-16T00:51:13.192Z,6.10
2019-02-16T00:52:05.956Z,5.70
2019-02-16T00:53:05.964Z,9.10
2019-02-16T00:54:05.986Z,21.10
2019-02-16T00:55:05.998Z,16.50
2019-02-16T00:56:06.014Z,9.80
2019-02-16T00:57:06.027Z,8.80
2019-02-16T00:58:06.044Z,9.20
2019-02-16T00:59:06.059Z,7.00
2019-02-16T01:00:06.077Z,7.10
2019-02-16T01:01:06.089Z,9.60
2019-02-16T01:02:06.105Z,29.40
2019-02-16T01:03:06.126Z,17.80
2019-02-16T01:04:06.141Z,14.70
2019-02-16T01:05:06.154Z,48.50
2019-02-16T01:06:06.170Z,11.80
2019-02-16T01:07:06.188Z,18.90
2019-02-16T01:08:06.200Z,9.30
2019-02-16T01:09:06.215Z,5.50
2019-02-16T01:10:06.234Z,5.10
2019-02-16T01:11:06.249Z,5.20
2019-02-16T01:12:06.269Z,5.20
2019-02-16T01:13:06.282Z,5.00
2019-02-16T01:14:06.294Z,5.60
2019-02-16T01:15:06.309Z,5.30
2019-02-16T01:16:06.325Z,4.80
2019-02-16T01:17:06.342Z,5.30
2019-02-16T01:18:06.358Z,5.50
2019-02-16T01:19:06.380Z,5.40
2019-02-16T01:20:06.390Z,5.40
2019-02-16T01:21:06.406Z,6.40
2019-02-16T01:22:06.426Z,5.80
2019-02-16T01:23:06.442Z,5.50
2019-02-16T01:24:06.459Z,4.80
2019-02-16T01:25:06.465Z,5.80
2019-02-16T01:26:06.479Z,5.80
2019-02-16T01:27:06.499Z,6.10
2019-02-16T01:28:06.514Z,6.40
2019-02-16T01:29:06.529Z,6.50
2019-02-16T01:30:06.543Z,6.20
2019-02-16T01:31:06.583Z,6.00
2019-02-16T01:32:06.593Z,6.30
2019-02-16T01:33:06.604Z,5.60
2019-02-16T01:34:06.625Z,6.30
2019-02-16T01:35:06.640Z,5.60
2019-02-16T01:36:06.653Z,5.90
2019-02-16T01:37:06.670Z,5.50
2019-02-16T01:38:06.686Z,5.20
2019-02-16T01:39:06.700Z,5.10
2019-02-16T01:40:06.717Z,5.60
2019-02-16T01:41:06.735Z,6.40
2019-02-16T01:42:06.748Z,6.20
2019-02-16T01:43:06.764Z,5.30
2019-02-16T01:44:06.773Z,5.40
2019-02-16T01:45:06.789Z,5.60
2019-02-16T01:46:06.800Z,6.10
2019-02-16T01:47:06.823Z,5.90
2019-02-16T01:48:06.823Z,6.30
2019-02-16T01:49:06.844Z,7.10
2019-02-16T01:50:06.853Z,6.70
2019-02-16T01:51:06.870Z,6.30
2019-02-16T01:52:06.887Z,5.70
2019-02-16T01:53:06.911Z,7.40
2019-02-16T01:54:06.927Z,6.30
2019-02-16T01:55:06.940Z,7.20
2019-02-16T01:56:06.958Z,7.10
2019-02-16T01:57:06.981Z,7.50
2019-02-16T01:58:06.987Z,6.70
2019-02-16T01:59:07.008Z,7.40
2019-02-16T02:00:07.018Z,7.00
2019-02-16T02:01:07.041Z,6.70
2019-02-16T02:02:07.052Z,7.90
2019-02-16T02:03:07.070Z,9.10
2019-02-16T02:04:07.080Z,9.50
2019-02-16T02:05:07.096Z,10.10
2019-02-16T02:06:07.310Z,10.90
2019-02-16T02:07:07.127Z,11.40
2019-02-16T02:08:07.145Z,10.50
2019-02-16T02:09:07.161Z,11.80
2019-02-16T02:10:07.173Z,13.70
2019-02-16T02:11:07.191Z,15.00
2019-02-16T02:12:07.202Z,11.40
2019-02-16T02:13:07.219Z,8.70
2019-02-16T02:14:07.241Z,8.90
2019-02-16T02:15:07.255Z,9.50
2019-02-16T02:16:07.262Z,8.00
2019-02-16T02:17:07.277Z,6.60
2019-02-16T02:18:07.292Z,6.20
2019-02-16T02:19:07.308Z,5.80
2019-02-16T02:20:07.327Z,5.80
2019-02-16T02:21:07.345Z,6.10
2019-02-16T02:22:07.370Z,6.90
2019-02-16T02:23:07.373Z,6.60
2019-02-16T02:24:07.384Z,5.80
2019-02-16T02:25:07.400Z,7.00
2019-02-16T02:26:07.418Z,7.20
2019-02-16T02:27:07.439Z,8.20
2019-02-16T02:28:07.446Z,7.60
2019-02-16T02:29:07.465Z,8.10
2019-02-16T02:30:07.479Z,8.50
2019-02-16T02:31:07.497Z,9.50
2019-02-16T02:32:07.506Z,8.70
2019-02-16T02:33:07.522Z,7.40
2019-02-16T02:34:07.537Z,6.90
2019-02-16T02:35:07.558Z,7.20
2019-02-16T02:36:07.576Z,6.60
2019-02-16T02:37:07.585Z,7.30
2019-02-16T02:38:07.607Z,7.20
2019-02-16T02:39:07.623Z,6.20
2019-02-16T02:40:07.631Z,5.70
2019-02-16T02:41:07.650Z,6.60
2019-02-16T02:42:07.661Z,6.80
2019-02-16T02:43:07.678Z,6.80
2019-02-16T02:44:07.698Z,6.30
2019-02-16T02:45:07.707Z,6.40
2019-02-16T02:46:07.718Z,6.80
2019-02-16T02:47:07.737Z,7.00
2019-02-16T02:48:07.753Z,6.50
2019-02-16T02:49:07.765Z,6.80
2019-02-16T02:50:07.780Z,6.60
2019-02-16T02:51:07.797Z,8.60
2019-02-16T02:52:07.816Z,8.20
2019-02-16T02:53:07.824Z,10.20
2019-02-16T02:54:07.839Z,10.10
2019-02-16T02:55:07.866Z,9.70
2019-02-16T02:56:07.873Z,9.40
2019-02-16T02:57:07.885Z,9.20
2019-02-16T02:58:07.904Z,9.70
2019-02-16T02:59:07.922Z,9.10
2019-02-16T03:00:07.931Z,8.20
2019-02-16T03:01:07.946Z,8.30
2019-02-16T03:02:07.970Z,8.60
2019-02-16T03:03:07.980Z,9.30
2019-02-16T03:04:07.993Z,9.30
2019-02-16T03:05:08.010Z,9.40
2019-02-16T03:06:08.023Z,7.50
2019-02-16T03:07:08.041Z,8.10
2019-02-16T03:08:08.056Z,8.70
2019-02-16T03:09:08.067Z,8.50
2019-02-16T03:10:08.087Z,9.70
2019-02-16T03:11:08.101Z,9.20
2019-02-16T03:12:08.121Z,9.00
2019-02-16T03:13:08.138Z,8.90
2019-02-16T03:14:08.147Z,9.60
2019-02-16T03:15:08.170Z,9.10
2019-02-16T03:16:08.188Z,8.10
2019-02-16T03:17:08.188Z,9.50
2019-02-16T03:18:08.205Z,7.80
2019-02-16T03:19:08.224Z,10.60
2019-02-16T03:20:08.239Z,9.20
2019-02-16T03:21:08.254Z,7.80
2019-02-16T03:22:08.267Z,7.70
2019-02-16T03:23:08.289Z,7.90
2019-02-16T03:24:08.299Z,7.70
2019-02-16T03:25:08.314Z,10.80
2019-02-16T03:26:08.336Z,10.50
2019-02-16T03:27:08.344Z,13.40
2019-02-16T03:28:08.358Z,16.10
2019-02-16T03:29:08.370Z,13.30
2019-02-16T03:30:08.387Z,11.50
2019-02-16T03:31:08.401Z,9.90
2019-02-16T03:32:08.422Z,8.60
2019-02-16T03:33:08.439Z,8.80
2019-02-16T03:34:08.449Z,9.10
2019-02-16T03:35:08.462Z,8.20
2019-02-16T03:36:08.476Z,7.80
2019-02-16T03:37:08.489Z,8.40
2019-02-16T03:38:08.508Z,9.10
2019-02-16T03:39:08.522Z,9.00
2019-02-16T03:40:08.537Z,8.10
2019-02-16T03:41:08.555Z,9.00
2019-02-16T03:42:08.565Z,7.40
2019-02-16T03:43:08.584Z,7.70
2019-02-16T03:44:08.596Z,7.90
2019-02-16T03:45:08.611Z,7.60
2019-02-16T03:46:08.627Z,8.00
2019-02-16T03:47:08.645Z,11.70
2019-02-16T03:48:08.659Z,20.10
2019-02-16T03:49:08.671Z,12.60
2019-02-16T03:50:08.683Z,10.80
2019-02-16T03:51:08.701Z,10.10
2019-02-16T03:52:13.780Z,10.20
2019-02-16T03:53:08.730Z,9.80
2019-02-16T03:54:08.751Z,9.70
2019-02-16T03:55:08.761Z,8.40
2019-02-16T03:56:08.774Z,8.00
2019-02-16T03:57:08.789Z,8.80
2019-02-16T03:58:08.804Z,9.10
2019-02-16T03:59:08.847Z,8.20
2019-02-16T04:00:08.836Z,8.20
2019-02-16T04:01:08.847Z,8.60
2019-02-16T04:02:08.865Z,8.50
2019-02-16T04:03:08.877Z,8.10
2019-02-16T04:04:09.144Z,7.40
2019-02-16T04:05:08.906Z,8.70
2019-02-16T04:06:08.926Z,8.00
2019-02-16T04:07:08.938Z,7.30
2019-02-16T04:08:08.956Z,7.40
2019-02-16T04:09:08.970Z,7.90
2019-02-16T04:10:08.988Z,7.80
2019-02-16T04:11:08.995Z,8.40
2019-02-16T04:12:09.012Z,8.80
2019-02-16T04:13:09.024Z,8.50
2019-02-16T04:14:09.045Z,9.50
2019-02-16T04:15:09.055Z,9.70
2019-02-16T04:16:09.059Z,9.20
2019-02-16T04:17:09.074Z,11.70
2019-02-16T04:18:09.087Z,12.90
2019-02-16T04:19:09.104Z,10.50
2019-02-16T04:20:09.127Z,9.50
2019-02-16T04:21:09.132Z,8.10
2019-02-16T04:22:09.153Z,8.40
2019-02-16T04:23:09.171Z,8.80
2019-02-16T04:24:09.177Z,8.20
2019-02-16T04:25:09.211Z,9.30
2019-02-16T04:26:09.218Z,7.80
2019-02-16T04:27:09.222Z,7.30
2019-02-16T04:28:09.244Z,8.10
2019-02-16T04:29:09.251Z,8.40
2019-02-16T04:30:09.263Z,8.50
2019-02-16T04:31:09.280Z,8.50
2019-02-16T04:32:09.293Z,8.60
2019-02-16T04:33:09.314Z,8.60
2019-02-16T04:34:09.323Z,7.90
2019-02-16T04:35:09.336Z,8.60
2019-02-16T04:36:09.351Z,8.10
2019-02-16T04:37:09.366Z,8.60
2019-02-16T04:38:09.382Z,8.60
2019-02-16T04:39:09.401Z,8.80
2019-02-16T04:40:09.415Z,7.60
2019-02-16T04:41:09.432Z,8.00
2019-02-16T04:42:09.437Z,7.90
2019-02-16T04:43:09.452Z,7.20
2019-02-16T04:44:09.470Z,8.40
2019-02-16T04:45:09.487Z,8.10
2019-02-16T04:46:09.494Z,8.20
2019-02-16T04:47:09.512Z,7.80
2019-02-16T04:48:09.524Z,8.60
2019-02-16T04:49:09.556Z,8.80
2019-02-16T04:50:09.553Z,8.00
2019-02-16T04:51:09.570Z,8.80
2019-02-16T04:52:09.593Z,8.80
2019-02-16T04:53:09.596Z,9.20
2019-02-16T04:54:09.620Z,8.90
2019-02-16T04:55:09.629Z,8.90
2019-02-16T04:56:09.643Z,8.90
2019-02-16T04:57:09.661Z,8.40
2019-02-16T04:58:09.671Z,9.20
2019-02-16T04:59:09.698Z,9.60
2019-02-16T05:00:09.706Z,9.00
2019-02-16T05:01:09.713Z,9.40
2019-02-16T05:02:09.729Z,8.80
2019-02-16T05:03:09.746Z,9.60
2019-02-16T05:04:09.768Z,9.50
2019-02-16T05:05:09.770Z,10.00
2019-02-16T05:06:09.788Z,9.40
2019-02-16T05:07:09.808Z,9.60
2019-02-16T05:08:09.819Z,8.80
2019-02-16T05:09:09.830Z,10.30
2019-02-16T05:10:09.843Z,8.80
2019-02-16T05:11:09.858Z,9.70
2019-02-16T05:12:09.872Z,10.50
2019-02-16T05:13:09.888Z,9.40
2019-02-16T05:14:09.901Z,10.10
2019-02-16T05:15:09.921Z,10.60
2019-02-16T05:16:09.932Z,10.10
2019-02-16T05:17:09.945Z,10.40
2019-02-16T05:18:09.958Z,9.80
2019-02-16T05:19:09.973Z,9.90
2019-02-16T05:20:09.989Z,9.00
2019-02-16T05:21:10.000Z,8.60
2019-02-16T05:22:10.016Z,8.70
2019-02-16T05:23:10.030Z,9.10
2019-02-16T05:24:10.045Z,9.00
2019-02-16T05:25:10.064Z,8.50
2019-02-16T05:26:10.073Z,8.20
2019-02-16T05:27:10.087Z,8.10
2019-02-16T05:28:10.101Z,9.00
2019-02-16T05:29:10.120Z,8.30
2019-02-16T05:30:10.143Z,7.90
2019-02-16T05:31:10.156Z,9.30
2019-02-16T05:32:10.162Z,9.30
2019-02-16T05:33:10.172Z,8.40
2019-02-16T05:34:10.193Z,8.70
2019-02-16T05:35:10.210Z,8.50
2019-02-16T05:36:10.215Z,9.10
2019-02-16T05:37:10.235Z,9.20
2019-02-16T05:38:10.244Z,8.60
2019-02-16T05:39:10.262Z,9.10
2019-02-16T05:40:10.275Z,7.90
2019-02-16T05:41:10.290Z,10.30
2019-02-16T05:42:10.302Z,8.60
2019-02-16T05:43:10.315Z,9.80
2019-02-16T05:44:10.338Z,9.00
2019-02-16T05:45:10.346Z,8.50
2019-02-16T05:46:10.358Z,9.20
2019-02-16T05:47:10.378Z,8.90
2019-02-16T05:48:10.395Z,9.20
2019-02-16T05:49:10.400Z,9.20
2019-02-16T05:50:10.434Z,9.60
2019-02-16T05:51:10.432Z,9.50
2019-02-16T05:52:10.445Z,8.80
2019-02-16T05:53:10.459Z,9.00
2019-02-16T05:54:10.471Z,8.60
2019-02-16T05:55:10.490Z,9.20
2019-02-16T05:56:10.513Z,9.50
2019-02-16T05:57:10.515Z,9.30
2019-02-16T05:58:10.530Z,9.20
2019-02-16T05:59:10.549Z,10.20
2019-02-16T06:00:10.561Z,9.80
2019-02-16T06:01:10.572Z,10.40
2019-02-16T06:02:10.588Z,10.10
2019-02-16T06:03:10.608Z,13.40
2019-02-16T06:04:10.616Z,27.90
2019-02-16T06:05:10.628Z,22.40
2019-02-16T06:06:10.651Z,12.90
2019-02-16T06:07:10.654Z,10.80
2019-02-16T06:08:10.669Z,9.10
2019-02-16T06:09:10.682Z,9.40
2019-02-16T06:10:10.697Z,10.70
2019-02-16T06:11:10.723Z,9.80
2019-02-16T06:12:10.731Z,11.80
2019-02-16T06:13:10.739Z,16.80
2019-02-16T06:14:10.759Z,21.80
2019-02-16T06:15:10.780Z,24.60
2019-02-16T06:16:10.782Z,28.00
2019-02-16T06:17:10.805Z,27.20
2019-02-16T06:18:10.812Z,30.70
2019-02-16T06:19:11.075Z,28.30
2019-02-16T06:20:10.843Z,29.00
2019-02-16T06:21:10.850Z,33.40
2019-02-16T06:22:10.876Z,31.10
2019-02-16T06:23:10.883Z,30.10
2019-02-16T06:24:10.896Z,25.90
2019-02-16T06:25:10.909Z,24.20
2019-02-16T06:26:10.923Z,24.20
2019-02-16T06:27:10.936Z,22.20
2019-02-16T06:28:10.951Z,21.40
2019-02-16T06:29:10.965Z,18.40
2019-02-16T06:30:10.979Z,18.00
2019-02-16T06:31:10.994Z,16.00
2019-02-16T06:32:11.009Z,16.70
2019-02-16T06:33:11.024Z,14.90
2019-02-16T06:34:11.034Z,12.40
2019-02-16T06:35:11.047Z,12.10
2019-02-16T06:36:11.061Z,12.20
2019-02-16T06:37:11.074Z,12.70
2019-02-16T06:38:11.088Z,13.80
2019-02-16T06:39:11.106Z,15.70
2019-02-16T06:40:11.120Z,14.30
2019-02-16T06:41:11.130Z,14.40
2019-02-16T06:42:11.145Z,12.70
2019-02-16T06:43:11.161Z,11.80
2019-02-16T06:44:11.183Z,11.40
2019-02-16T06:45:11.186Z,11.50
2019-02-16T06:46:11.200Z,12.40
2019-02-16T06:47:11.216Z,11.70
2019-02-16T06:48:11.229Z,11.30
2019-02-16T06:49:11.249Z,9.60
2019-02-16T06:50:11.264Z,10.60
2019-02-16T06:51:11.271Z,11.00
2019-02-16T06:52:11.290Z,10.30
2019-02-16T06:53:13.506Z,9.30
2019-02-16T06:54:11.319Z,9.30
2019-02-16T06:55:11.328Z,11.30
2019-02-16T06:56:11.347Z,10.90
2019-02-16T06:57:11.352Z,11.10
2019-02-16T06:58:11.375Z,11.70
2019-02-16T06:59:11.383Z,10.60
2019-02-16T07:00:11.395Z,10.60
2019-02-16T07:01:11.409Z,10.40
2019-02-16T07:02:11.425Z,10.60
2019-02-16T07:03:11.439Z,11.50
2019-02-16T07:04:11.453Z,10.90
2019-02-16T07:05:11.464Z,11.80
2019-02-16T07:06:11.478Z,11.00
2019-02-16T07:07:11.500Z,10.70
2019-02-16T07:08:11.507Z,11.10
2019-02-16T07:09:11.522Z,11.50
2019-02-16T07:10:11.589Z,10.70
2019-02-16T07:11:11.551Z,10.30
2019-02-16T07:12:11.565Z,10.50
2019-02-16T07:13:11.579Z,10.80
2019-02-16T07:14:11.590Z,9.90
2019-02-16T07:15:11.613Z,9.50
2019-02-16T07:16:11.621Z,10.70
2019-02-16T07:17:11.632Z,10.70
2019-02-16T07:18:11.648Z,10.30
2019-02-16T07:19:11.663Z,11.10
2019-02-16T07:20:11.683Z,11.30
2019-02-16T07:21:11.690Z,10.20
2019-02-16T07:22:11.711Z,9.80
2019-02-16T07:23:11.723Z,10.20
2019-02-16T07:24:11.738Z,11.10
2019-02-16T07:25:11.745Z,10.00
2019-02-16T07:26:11.761Z,9.60
2019-02-16T07:27:11.772Z,9.70
2019-02-16T07:28:11.789Z,10.30
2019-02-16T07:29:11.802Z,10.80
2019-02-16T07:30:11.815Z,9.90
2019-02-16T07:31:11.830Z,11.30
2019-02-16T07:32:11.849Z,10.80
2019-02-16T07:33:11.855Z,10.20
2019-02-16T07:34:11.870Z,10.70
2019-02-16T07:35:11.887Z,10.50
2019-02-16T07:36:11.901Z,10.10
2019-02-16T07:37:11.915Z,9.90
2019-02-16T07:38:11.928Z,10.40
2019-02-16T07:39:11.950Z,9.10
2019-02-16T07:40:11.955Z,9.90
2019-02-16T07:41:11.969Z,10.00
2019-02-16T07:42:11.983Z,9.50
2019-02-16T07:43:12.000Z,9.50
2019-02-16T07:44:12.014Z,9.90
2019-02-16T07:45:12.031Z,9.30
2019-02-16T07:46:12.046Z,9.60
2019-02-16T07:47:12.056Z,9.30
2019-02-16T07:48:12.072Z,8.90
2019-02-16T07:49:12.090Z,9.50
2019-02-16T07:50:12.096Z,10.00
2019-02-16T07:51:12.111Z,10.30
2019-02-16T07:52:12.129Z,10.10
2019-02-16T07:53:12.145Z,10.20
2019-02-16T07:54:12.162Z,10.80
2019-02-16T07:55:12.168Z,9.70
2019-02-16T07:56:12.185Z,9.70
2019-02-16T07:57:12.197Z,9.50
2019-02-16T07:58:12.210Z,10.60
2019-02-16T07:59:12.227Z,9.40
2019-02-16T08:00:12.243Z,9.90
2019-02-16T08:01:12.256Z,9.30
2019-02-16T08:02:12.268Z,10.00
2019-02-16T08:03:12.285Z,9.90
2019-02-16T08:04:12.300Z,10.40
2019-02-16T08:05:12.313Z,12.10
2019-02-16T08:06:12.330Z,10.40
2019-02-16T08:07:12.346Z,11.50
2019-02-16T08:08:12.358Z,11.40
2019-02-16T08:09:12.369Z,12.20
2019-02-16T08:10:12.395Z,11.60
2019-02-16T08:11:12.402Z,12.20
2019-02-16T08:12:12.414Z,12.50
2019-02-16T08:13:12.434Z,12.90
2019-02-16T08:14:12.450Z,13.80
2019-02-16T08:15:12.459Z,15.40
2019-02-16T08:16:12.474Z,12.80
2019-02-16T08:17:12.489Z,11.00
2019-02-16T08:18:12.500Z,11.40
2019-02-16T08:19:12.557Z,11.50
2019-02-16T08:20:12.532Z,9.90
2019-02-16T08:21:12.547Z,11.00
2019-02-16T08:22:12.562Z,9.90
2019-02-16T08:23:12.581Z,10.70
2019-02-16T08:24:12.590Z,10.50
2019-02-16T08:25:12.604Z,11.30
2019-02-16T08:26:12.620Z,10.60
2019-02-16T08:27:12.633Z,9.30
2019-02-16T08:28:12.654Z,10.20
2019-02-16T08:29:12.664Z,11.00
2019-02-16T08:30:12.677Z,10.20
2019-02-16T08:31:12.692Z,9.90
2019-02-16T08:32:12.709Z,9.70
2019-02-16T08:33:12.725Z,9.80
2019-02-16T08:34:12.739Z,10.30
2019-02-16T08:35:12.754Z,9.80
2019-02-16T08:36:12.767Z,9.30
2019-02-16T08:37:12.783Z,9.50
2019-02-16T08:38:12.801Z,10.60
2019-02-16T08:39:12.817Z,9.90
2019-02-16T08:40:12.833Z,9.50
2019-02-16T08:41:12.841Z,9.70
2019-02-16T08:42:12.864Z,9.20
2019-02-16T08:43:12.875Z,10.30
2019-02-16T08:44:12.890Z,10.20
2019-02-16T08:45:12.908Z,10.90
2019-02-16T08:46:12.919Z,12.30
2019-02-16T08:47:12.934Z,11.20
2019-02-16T08:48:12.954Z,10.40
2019-02-16T08:49:12.962Z,10.00
2019-02-16T08:50:12.983Z,9.40
2019-02-16T08:51:12.996Z,10.70
2019-02-16T08:52:13.009Z,10.00
2019-02-16T08:53:13.024Z,9.80
2019-02-16T08:54:13.048Z,9.40
2019-02-16T08:55:13.055Z,9.90
2019-02-16T08:56:13.077Z,8.70
2019-02-16T08:57:13.085Z,8.80
2019-02-16T08:58:13.104Z,9.80
2019-02-16T08:59:13.119Z,10.80
2019-02-16T09:00:13.133Z,9.50
2019-02-16T09:01:13.149Z,8.00
2019-02-16T09:02:13.172Z,9.60
2019-02-16T09:03:13.181Z,8.70
2019-02-16T09:04:13.195Z,8.40
2019-02-16T09:05:13.210Z,8.50
2019-02-16T09:06:13.229Z,8.00
2019-02-16T09:07:13.244Z,8.70
2019-02-16T09:08:13.263Z,8.10
2019-02-16T09:09:13.273Z,7.80
2019-02-16T09:10:13.291Z,7.70
2019-02-16T09:11:13.306Z,7.60
2019-02-16T09:12:13.323Z,7.40
2019-02-16T09:13:13.342Z,8.00
2019-02-16T09:14:13.354Z,9.40
2019-02-16T09:15:13.370Z,8.20
2019-02-16T09:16:13.387Z,7.70
2019-02-16T09:17:13.567Z,6.70
2019-02-16T09:18:13.416Z,7.70
2019-02-16T09:19:13.433Z,6.80
2019-02-16T09:20:13.456Z,7.40
2019-02-16T09:21:15.056Z,7.40
2019-02-16T09:22:13.686Z,7.70
2019-02-16T09:23:13.499Z,7.60
2019-02-16T09:24:13.517Z,7.00
2019-02-16T09:25:13.536Z,6.80
2019-02-16T09:26:13.553Z,7.30
2019-02-16T09:27:13.566Z,7.60
2019-02-16T09:28:13.581Z,7.40
2019-02-16T09:29:13.596Z,6.80
2019-02-16T09:30:13.615Z,8.10
2019-02-16T09:31:13.633Z,7.00
2019-02-16T09:32:13.652Z,6.80
2019-02-16T09:33:13.673Z,7.50
2019-02-16T09:34:13.682Z,7.60
2019-02-16T09:35:13.699Z,7.60
2019-02-16T09:36:13.714Z,7.20
2019-02-16T09:37:13.732Z,7.40
2019-02-16T09:38:13.756Z,8.00
2019-02-16T09:39:13.767Z,7.10
2019-02-16T09:40:13.784Z,7.90
2019-02-16T09:41:13.798Z,7.80
2019-02-16T09:42:13.818Z,9.20
2019-02-16T09:43:13.832Z,9.40
2019-02-16T09:44:13.856Z,7.80
2019-02-16T09:45:13.869Z,9.40
2019-02-16T09:46:13.888Z,8.10
2019-02-16T09:47:13.901Z,8.70
2019-02-16T09:48:13.923Z,7.50
2019-02-16T09:49:13.938Z,7.70
2019-02-16T09:50:13.955Z,7.90
2019-02-16T09:51:13.970Z,7.50
2019-02-16T09:52:13.990Z,7.70
2019-02-16T09:53:14.005Z,7.30
2019-02-16T09:54:14.030Z,7.60
2019-02-16T09:55:14.042Z,8.00
2019-02-16T09:56:14.057Z,7.90
2019-02-16T09:57:14.076Z,7.30
2019-02-16T09:58:14.095Z,8.80
2019-02-16T09:59:14.112Z,7.70
2019-02-16T10:00:14.133Z,7.30
2019-02-16T10:01:14.146Z,8.00
2019-02-16T10:02:14.164Z,7.90
2019-02-16T10:03:14.220Z,7.50
2019-02-16T10:04:14.198Z,7.90
2019-02-16T10:05:14.216Z,8.20
2019-02-16T10:06:14.233Z,8.20
2019-02-16T10:07:14.251Z,8.40
2019-02-16T10:08:14.270Z,8.30
2019-02-16T10:09:14.288Z,8.30
2019-02-16T10:10:14.313Z,7.30
2019-02-16T10:11:14.325Z,7.90
2019-02-16T10:12:14.341Z,9.20
2019-02-16T10:13:14.357Z,7.90
2019-02-16T10:14:14.376Z,7.50
2019-02-16T10:15:14.395Z,8.00
2019-02-16T10:16:14.415Z,7.70
2019-02-16T10:17:14.489Z,7.70
2019-02-16T10:18:14.453Z,7.20
2019-02-16T10:19:14.469Z,7.60
2019-02-16T10:20:14.484Z,7.90
2019-02-16T10:21:14.504Z,7.50
2019-02-16T10:22:14.521Z,8.50
2019-02-16T10:23:14.538Z,8.60
2019-02-16T10:24:17.826Z,8.40
2019-02-16T10:25:14.577Z,7.90
2019-02-16T10:26:14.593Z,8.40
2019-02-16T10:27:14.612Z,8.20
2019-02-16T10:28:14.637Z,8.30
2019-02-16T10:29:14.658Z,7.80
2019-02-16T10:30:14.666Z,8.60
2019-02-16T10:31:14.687Z,8.00
2019-02-16T10:32:14.711Z,9.40
2019-02-16T10:33:14.727Z,9.10
2019-02-16T10:34:14.742Z,9.00
2019-02-16T10:35:14.759Z,8.70
2019-02-16T10:36:14.786Z,10.10
2019-02-16T10:37:14.797Z,9.10
2019-02-16T10:38:14.814Z,10.60
2019-02-16T10:39:14.836Z,10.20
2019-02-16T10:40:14.860Z,9.50
2019-02-16T10:41:14.875Z,9.20
2019-02-16T10:42:14.890Z,10.30
2019-02-16T10:43:14.912Z,9.80
2019-02-16T10:44:14.927Z,9.60
2019-02-16T10:45:14.944Z,9.60
2019-02-16T10:46:14.964Z,9.90
2019-02-16T10:47:14.984Z,9.30
2019-02-16T10:48:15.002Z,11.00
2019-02-16T10:49:15.025Z,12.60
2019-02-16T10:50:15.046Z,14.70
2019-02-16T10:51:15.056Z,11.60
2019-02-16T10:52:15.078Z,11.70
2019-02-16T10:53:15.094Z,11.30
2019-02-16T10:54:15.115Z,11.30
2019-02-16T10:55:15.133Z,10.40
2019-02-16T10:56:15.150Z,12.40
2019-02-16T10:57:15.171Z,11.60
2019-02-16T10:58:15.190Z,13.60
2019-02-16T10:59:15.210Z,12.00
2019-02-16T11:00:15.226Z,11.60
2019-02-16T11:01:15.245Z,12.10
2019-02-16T11:02:15.266Z,12.40
2019-02-16T11:03:15.288Z,14.40
2019-02-16T11:04:15.301Z,13.10
2019-02-16T11:05:15.319Z,13.60
2019-02-16T11:06:15.341Z,11.90
2019-02-16T11:07:17.316Z,12.60
2019-02-16T11:08:15.376Z,12.80
2019-02-16T11:09:15.396Z,12.80
2019-02-16T11:10:15.416Z,12.40
2019-02-16T11:11:15.435Z,11.50
2019-02-16T11:12:15.454Z,13.10
2019-02-16T11:13:15.473Z,12.40
2019-02-16T11:14:15.498Z,13.00
2019-02-16T11:15:15.559Z,11.80
2019-02-16T11:16:15.534Z,12.70
2019-02-16T11:17:15.548Z,12.10
2019-02-16T11:18:15.564Z,13.10
2019-02-16T11:19:15.598Z,12.90
2019-02-16T11:20:15.607Z,13.90
2019-02-16T11:21:15.625Z,13.10
2019-02-16T11:22:15.640Z,14.80
2019-02-16T11:23:15.659Z,13.60
2019-02-16T11:24:15.682Z,14.20
2019-02-16T11:25:15.706Z,14.60
2019-02-16T11:26:15.725Z,14.70
2019-02-16T11:27:15.744Z,14.70
2019-02-16T11:28:15.763Z,15.20
2019-02-16T11:29:15.775Z,14.40
2019-02-16T11:30:15.795Z,14.30
2019-02-16T11:31:15.815Z,15.20
2019-02-16T11:32:15.832Z,14.90
2019-02-16T11:33:15.860Z,15.20
2019-02-16T11:34:15.869Z,15.30
2019-02-16T11:35:15.897Z,15.00
2019-02-16T11:36:15.910Z,13.80
2019-02-16T11:37:15.927Z,17.90
2019-02-16T11:38:16.444Z,21.20
2019-02-16T11:39:15.967Z,15.50
2019-02-16T11:40:15.985Z,14.10
2019-02-16T11:41:18.960Z,15.30
2019-02-16T11:42:16.025Z,13.40
2019-02-16T11:43:16.044Z,14.30
2019-02-16T11:44:16.063Z,16.90
2019-02-16T11:45:16.084Z,15.20
2019-02-16T11:46:16.102Z,13.00
2019-02-16T11:47:16.119Z,12.40
2019-02-16T11:48:16.141Z,14.30
2019-02-16T11:49:16.160Z,13.80
2019-02-16T11:50:16.178Z,12.60
2019-02-16T11:51:16.197Z,13.90
2019-02-16T11:52:16.217Z,12.70
2019-02-16T11:53:16.244Z,13.20
2019-02-16T11:54:16.258Z,13.10
2019-02-16T11:55:16.278Z,12.80
2019-02-16T11:56:16.296Z,13.00
2019-02-16T11:57:16.314Z,12.10
2019-02-16T11:58:16.345Z,13.00
2019-02-16T11:59:16.361Z,11.60
2019-02-16T12:00:16.377Z,13.10
2019-02-16T12:01:16.399Z,12.00
2019-02-16T12:02:16.415Z,13.20
2019-02-16T12:03:16.434Z,13.60
2019-02-16T12:04:17.276Z,12.90
2019-02-16T12:05:16.473Z,13.40
2019-02-16T12:06:16.495Z,13.00
2019-02-16T12:07:16.516Z,13.50
2019-02-16T12:08:16.542Z,13.00
2019-02-16T12:09:16.566Z,12.20
2019-02-16T12:10:16.583Z,12.10
2019-02-16T12:11:16.593Z,13.70
2019-02-16T12:12:16.614Z,13.50
2019-02-16T12:13:16.641Z,13.40
2019-02-16T12:14:17.933Z,13.40
2019-02-16T12:15:16.684Z,15.80
2019-02-16T12:16:16.693Z,14.60
2019-02-16T12:17:16.719Z,14.80
2019-02-16T12:18:16.736Z,14.40
2019-02-16T12:19:16.752Z,14.40
2019-02-16T12:20:16.773Z,14.40
2019-02-16T12:21:16.796Z,16.70
2019-02-16T12:22:16.816Z,16.60
2019-02-16T12:23:16.839Z,15.30
2019-02-16T12:24:16.853Z,16.20
2019-02-16T12:25:16.878Z,17.00
2019-02-16T12:26:16.894Z,18.40
2019-02-16T12:27:16.910Z,19.00
2019-02-16T12:28:16.936Z,18.30
2019-02-16T12:29:16.951Z,18.00
2019-02-16T12:30:16.971Z,17.70
2019-02-16T12:31:16.991Z,17.30
2019-02-16T12:32:17.010Z,18.40
2019-02-16T12:33:17.031Z,17.00
2019-02-16T12:34:17.054Z,18.00
2019-02-16T12:35:17.067Z,16.60
2019-02-16T12:36:17.150Z,17.00
2019-02-16T12:37:17.106Z,15.80
2019-02-16T12:38:17.126Z,15.30
2019-02-16T12:39:17.155Z,15.80
2019-02-16T12:40:17.169Z,15.50
2019-02-16T12:41:17.194Z,16.60
2019-02-16T12:42:17.208Z,16.30
2019-02-16T12:43:17.227Z,16.50
2019-02-16T12:44:17.246Z,17.10
2019-02-16T12:45:17.265Z,16.30
2019-02-16T12:46:17.286Z,16.60
2019-02-16T12:47:17.308Z,14.70
2019-02-16T12:48:17.328Z,16.10
2019-02-16T12:49:17.344Z,15.70
2019-02-16T12:50:17.369Z,15.50
2019-02-16T12:51:17.384Z,15.90
2019-02-16T12:52:17.405Z,14.00
2019-02-16T12:53:17.424Z,16.30
2019-02-16T12:54:17.445Z,15.10
2019-02-16T12:55:17.467Z,15.40
2019-02-16T12:56:17.486Z,15.00
2019-02-16T12:57:17.522Z,14.00
2019-02-16T12:58:17.526Z,14.30
2019-02-16T12:59:17.545Z,13.30
2019-02-16T13:00:17.571Z,14.00
2019-02-16T13:01:17.584Z,14.60
2019-02-16T13:02:17.611Z,12.80
2019-02-16T13:03:17.629Z,14.80
2019-02-16T13:04:17.643Z,14.00
2019-02-16T13:05:17.663Z,13.50
2019-02-16T13:06:17.682Z,14.40
2019-02-16T13:07:17.722Z,15.20